Haines, Illinois
Current Conditions -  °F | °C
As of 2:55 AM on Friday 31 Oct 2014 (Local Time) from KSLO Reporting Station
Overcast Overcast  
Wind Chill: 49°   Ceiling: 5000
Heat Index: 49°   Visibility: 10mi
Dew Point: 47°   Wind: 3mph
Humidity: 93%   Direction: 60°ENE
Pressure: 30.04"   Gusts: NA
Location:  38.5187°N, 88.8115°W
Report Text: KSLO 310755Z AUTO 06003KT 10SM BKN050 OVC075 09/08 A3004 RMK AO2 T00930082
Loading
Personal Weather Stations






























Interactive Weather Map
Tropical Storm Tracking
New forecast layout! Learn more

10-Day Weather Forecast

Advertisements
Track Severe Weather on mobile